Livingston, AL (35470)

6:58 AM CST on December 19, 2014 (GMT -0600)
Demopolis Municipal Airport | Change Station
CLOSE
Current Station
Airport
Location: Demopolis Municipal Airport,
Elevation: 112 ft
Nearby Weather Stations

Elev 112 ft 32.46 °N, 87.95 °W | Updated 43 minutes ago

Overcast
Overcast
43 °F
Feels Like 41 °F
N
4
Wind Variable Wind from NNE

Today
High -- | Low -- °F
--% Chance of Precip.
Yesterday
High -- | Low -- °F
Precip. -- in
6:49 AM 4:50 PM
Waning Crescent, 8% visible
Pressure 30.18 in
Visibility 10.0 miles
Clouds Overcast 3200 ft
Windchill 41 °F
Dew Point 35 °F
Humidity 75%
Rainfall 0.00 in
Snow Depth Not available.
UV 0 out of 12
Pollen .40 out of 12
Air Quality Not available.
Flu Activity Not available.
METAR KDYA 191215Z AUTO 02003KT 10SM OVC032 06/02 A3018 RMK AO2 T00610019

More Conditions Fewer Conditions

Pressure 30.18 in
Visibility 10.0 miles
Clouds Overcast 3200 ft
Windchill 41 °F
Dew Point 35 °F
Humidity 75%
Rainfall 0.00 in
Snow Depth Not available.
UV 0 out of 12
Pollen .40 out of 12
Air Quality Not available.
Flu Activity Not available.
METAR KDYA 191215Z AUTO 02003KT 10SM OVC032 06/02 A3018 RMK AO2 T00610019

More Conditions Fewer Conditions

10-Day Weather Forecast

Almanac

Astronomy

Dec. 19, 2014 Rise Set
Actual Time
Civil Twilight
Nautical Twilight
Astronomical Twilight
Moon
Length of Visible Light
Length of Day
Tomorrow will be .
, % of the Moon is Illuminated

Today's Extremes

State Highs State Lows

Community

WunderPhotos

Upload Photos

1,778,975 photos uploaded!

WunderBlogs® & News

Nearby

Air Quality

  Air Quality AQ Index Pollutant
Not available.

Snow Depth

Station Depth Elevation

Earthquake Activity

City Distance Mag. Time & Date
Minimum magnitude displayed is 2.5.

Coastal Water Temperatures

Place Temperature

Nearby Weather Stations